createdAt,value
2022-12-02T00:00:18.409Z,-73
2022-12-02T00:02:46.279Z,-73
2022-12-02T00:05:14.240Z,-72
2022-12-02T00:07:42.029Z,-73
2022-12-02T00:10:09.861Z,-73
2022-12-02T00:12:37.747Z,-73
2022-12-02T00:15:05.495Z,-72
2022-12-02T00:17:33.277Z,-73
2022-12-02T00:20:01.117Z,-73
2022-12-02T00:22:29.028Z,-73
2022-12-02T00:24:57.169Z,-73
2022-12-02T00:27:25.112Z,-73
2022-12-02T00:29:52.858Z,-73
2022-12-02T00:32:20.685Z,-73
2022-12-02T00:34:48.626Z,-73
2022-12-02T00:37:16.499Z,-73
2022-12-02T00:39:44.415Z,-73
2022-12-02T00:42:12.178Z,-73
2022-12-02T00:44:57.522Z,-73
2022-12-02T00:47:25.288Z,-73
2022-12-02T00:49:53.027Z,-73
2022-12-02T00:52:20.765Z,-73
2022-12-02T00:54:48.703Z,-73
2022-12-02T00:57:16.670Z,-73
2022-12-02T00:59:44.420Z,-73
2022-12-02T01:02:12.506Z,-73
2022-12-02T01:04:40.381Z,-73
2022-12-02T01:07:08.141Z,-73
2022-12-02T01:09:35.938Z,-73
2022-12-02T01:12:04.060Z,-73
2022-12-02T01:14:31.957Z,-73
2022-12-02T01:16:59.953Z,-73
2022-12-02T01:19:28.071Z,-73
2022-12-02T01:21:55.880Z,-73
2022-12-02T01:24:23.869Z,-73
2022-12-02T01:26:51.633Z,-73
2022-12-02T01:29:19.573Z,-73
2022-12-02T01:31:47.395Z,-73
2022-12-02T01:34:15.303Z,-73
2022-12-02T01:36:43.321Z,-73
2022-12-02T01:39:11.119Z,-73
2022-12-02T01:41:38.866Z,-73
2022-12-02T01:44:08.701Z,-73
2022-12-02T01:46:37.383Z,-73
2022-12-02T01:49:05.200Z,-73
2022-12-02T01:51:33.063Z,-73
2022-12-02T01:54:00.890Z,-73
2022-12-02T01:56:28.698Z,-73
2022-12-02T01:58:56.598Z,-73
2022-12-02T02:01:24.519Z,-73
2022-12-02T02:03:52.410Z,-73
2022-12-02T02:06:20.188Z,-73
2022-12-02T02:08:47.974Z,-73
2022-12-02T02:11:15.847Z,-73
2022-12-02T02:13:43.711Z,-73
2022-12-02T02:16:11.486Z,-73
2022-12-02T02:18:39.538Z,-73
2022-12-02T02:21:07.286Z,-73
2022-12-02T02:23:35.043Z,-73
2022-12-02T02:26:02.825Z,-73
2022-12-02T02:28:30.671Z,-73
2022-12-02T02:30:58.532Z,-73
2022-12-02T02:33:26.437Z,-73
2022-12-02T02:35:54.255Z,-73
2022-12-02T02:38:23.415Z,-73
2022-12-02T02:40:51.211Z,-73
2022-12-02T02:43:19.032Z,-73
2022-12-02T02:45:46.898Z,-73
2022-12-02T02:48:14.897Z,-73
2022-12-02T02:50:42.680Z,-73
2022-12-02T02:53:10.527Z,-73
2022-12-02T02:55:38.290Z,-73
2022-12-02T02:58:06.155Z,-73
2022-12-02T03:00:33.989Z,-73
2022-12-02T03:03:01.782Z,-73
2022-12-02T03:05:29.522Z,-73
2022-12-02T03:07:57.360Z,-73
2022-12-02T03:10:25.484Z,-73
2022-12-02T03:12:54.057Z,-73
2022-12-02T03:15:21.911Z,-73
2022-12-02T03:17:49.659Z,-73
2022-12-02T03:20:17.451Z,-73
2022-12-02T03:22:45.198Z,-73
2022-12-02T03:25:12.950Z,-73
2022-12-02T03:27:40.825Z,-73
2022-12-02T03:30:08.553Z,-73
2022-12-02T03:32:36.545Z,-73
2022-12-02T03:35:04.472Z,-73
2022-12-02T03:37:32.296Z,-73
2022-12-02T03:40:00.238Z,-73
2022-12-02T03:42:28.154Z,-73
2022-12-02T03:44:56.053Z,-73
2022-12-02T03:47:23.822Z,-73
2022-12-02T03:49:51.647Z,-73
2022-12-02T03:52:19.434Z,-73
2022-12-02T03:54:51.945Z,-73
2022-12-02T03:57:22.539Z,-73
2022-12-02T03:59:50.520Z,-73
2022-12-02T04:02:18.312Z,-73
2022-12-02T04:04:46.104Z,-73
2022-12-02T04:07:13.879Z,-73
2022-12-02T04:09:41.870Z,-73
2022-12-02T04:12:09.597Z,-73
2022-12-02T04:14:37.382Z,-73
2022-12-02T04:17:08.190Z,-73
2022-12-02T04:19:36.340Z,-73
2022-12-02T04:22:04.206Z,-73
2022-12-02T04:24:32.025Z,-73
2022-12-02T04:26:59.780Z,-73
2022-12-02T04:29:27.627Z,-73
2022-12-02T04:31:55.425Z,-78
2022-12-02T04:34:23.419Z,-77
2022-12-02T04:36:51.211Z,-78
2022-12-02T04:39:18.992Z,-78
2022-12-02T04:41:46.878Z,-78
2022-12-02T04:44:18.047Z,-78
2022-12-02T04:46:46.252Z,-78
2022-12-02T04:49:14.194Z,-78
2022-12-02T04:51:41.956Z,-78
2022-12-02T04:54:09.718Z,-78
2022-12-02T04:56:37.528Z,-78
2022-12-02T04:59:05.359Z,-79
2022-12-02T05:01:33.108Z,-78
2022-12-02T05:04:00.981Z,-78
2022-12-02T05:06:38.841Z,-78
2022-12-02T05:09:06.596Z,-79
2022-12-02T05:11:36.697Z,-78
2022-12-02T05:14:04.545Z,-78
2022-12-02T05:16:32.581Z,-78
2022-12-02T05:19:00.437Z,-79
2022-12-02T05:21:28.177Z,-79
2022-12-02T05:23:55.958Z,-78
2022-12-02T05:26:23.772Z,-77
2022-12-02T05:28:51.539Z,-77
2022-12-02T05:31:19.358Z,-77
2022-12-02T05:33:47.314Z,-77
2022-12-02T05:36:15.084Z,-77
2022-12-02T05:38:42.790Z,-77
2022-12-02T05:41:10.503Z,-77
2022-12-02T05:43:38.303Z,-77
2022-12-02T05:46:06.058Z,-77
2022-12-02T05:48:33.867Z,-77
2022-12-02T05:51:01.573Z,-77
2022-12-02T05:53:29.333Z,-77
2022-12-02T05:55:57.249Z,-77
2022-12-02T05:58:25.010Z,-79
2022-12-02T06:00:52.899Z,-78
2022-12-02T06:03:20.827Z,-79
2022-12-02T06:05:48.758Z,-78
2022-12-02T06:08:16.772Z,-79
2022-12-02T06:10:44.567Z,-78
2022-12-02T06:13:12.379Z,-78
2022-12-02T06:15:40.153Z,-78
2022-12-02T06:18:08.007Z,-78
2022-12-02T06:20:35.802Z,-79
2022-12-02T06:23:03.573Z,-78
2022-12-02T06:25:31.332Z,-78
2022-12-02T06:27:59.720Z,-79
2022-12-02T06:30:27.618Z,-78
2022-12-02T06:32:55.602Z,-78
2022-12-02T06:35:23.355Z,-79
2022-12-02T06:37:51.111Z,-78
2022-12-02T06:40:27.969Z,-79
2022-12-02T06:42:56.827Z,-78
2022-12-02T06:45:29.142Z,-79
2022-12-02T06:47:57.438Z,-79
2022-12-02T06:50:25.235Z,-78
2022-12-02T06:52:52.996Z,-78
2022-12-02T06:55:20.808Z,-78
2022-12-02T06:57:48.533Z,-78
2022-12-02T07:00:16.314Z,-78
2022-12-02T07:02:44.343Z,-79
2022-12-02T07:05:12.180Z,-79
2022-12-02T07:07:40.104Z,-79
2022-12-02T07:10:07.954Z,-79
2022-12-02T07:12:35.727Z,-79
2022-12-02T07:15:03.557Z,-79
2022-12-02T07:17:33.265Z,-79
2022-12-02T07:20:01.079Z,-79
2022-12-02T07:22:29.209Z,-78
2022-12-02T07:24:57.058Z,-79
2022-12-02T07:27:24.863Z,-79
2022-12-02T07:29:52.652Z,-79
2022-12-02T07:32:20.922Z,-79
2022-12-02T07:34:48.855Z,-79
2022-12-02T07:37:16.935Z,-79
2022-12-02T07:39:44.676Z,-79
2022-12-02T07:42:14.064Z,-79
2022-12-02T07:44:42.327Z,-79
2022-12-02T07:47:10.127Z,-79
2022-12-02T07:49:38.015Z,-78
2022-12-02T07:52:05.811Z,-78
2022-12-02T07:54:33.731Z,-78
2022-12-02T07:57:01.607Z,-79
2022-12-02T07:59:29.434Z,-78
2022-12-02T08:01:57.368Z,-78
2022-12-02T08:04:25.224Z,-78
2022-12-02T08:06:53.096Z,-78
2022-12-02T08:09:20.904Z,-78
2022-12-02T08:11:48.682Z,-78
2022-12-02T08:14:16.437Z,-78
2022-12-02T08:16:44.343Z,-78
2022-12-02T08:19:12.238Z,-78
2022-12-02T08:21:41.145Z,-78
2022-12-02T08:24:08.939Z,-78
2022-12-02T08:26:36.868Z,-78
2022-12-02T08:29:07.935Z,-78
2022-12-02T08:31:35.636Z,-78
2022-12-02T08:34:07.074Z,-79
2022-12-02T08:36:35.519Z,-78
2022-12-02T08:39:05.639Z,-78
2022-12-02T08:41:33.796Z,-78
2022-12-02T08:44:01.554Z,-78
2022-12-02T08:46:29.388Z,-78
2022-12-02T08:48:57.108Z,-78
2022-12-02T08:51:24.818Z,-79
2022-12-02T08:53:53.320Z,-78
2022-12-02T08:56:21.030Z,-78
2022-12-02T08:58:48.756Z,-78
2022-12-02T09:01:16.520Z,-78
2022-12-02T09:03:44.353Z,-78
2022-12-02T09:06:12.057Z,-78
2022-12-02T09:08:39.762Z,-78
2022-12-02T09:11:07.623Z,-78
2022-12-02T09:13:37.637Z,-78
2022-12-02T09:16:05.552Z,-78
2022-12-02T09:18:33.281Z,-78
2022-12-02T09:21:01.006Z,-78
2022-12-02T09:23:29.036Z,-78
2022-12-02T09:25:56.849Z,-78
2022-12-02T09:28:24.677Z,-78
2022-12-02T09:30:52.427Z,-78
2022-12-02T09:33:20.157Z,-79
2022-12-02T09:35:47.873Z,-78
2022-12-02T09:38:15.688Z,-78
2022-12-02T09:40:43.579Z,-78
2022-12-02T09:43:11.286Z,-78
2022-12-02T09:45:39.015Z,-78
2022-12-02T09:48:06.753Z,-78
2022-12-02T09:50:34.472Z,-78
2022-12-02T09:53:02.290Z,-79
2022-12-02T09:55:30.036Z,-79
2022-12-02T09:57:57.740Z,-79
2022-12-02T10:00:25.425Z,-79
2022-12-02T10:02:53.245Z,-79
2022-12-02T10:05:21.036Z,-78
2022-12-02T10:07:48.966Z,-79
2022-12-02T10:10:16.822Z,-78
2022-12-02T10:12:44.558Z,-79
2022-12-02T10:15:12.270Z,-79
2022-12-02T10:17:40.129Z,-78
2022-12-02T10:20:07.916Z,-78
2022-12-02T10:22:35.641Z,-78
2022-12-02T10:25:03.379Z,-78
2022-12-02T10:27:31.271Z,-78
2022-12-02T10:29:59.079Z,-79
2022-12-02T10:32:27.990Z,-78
2022-12-02T10:41:48.994Z,-82
2022-12-02T10:44:22.758Z,-82
2022-12-02T10:49:32.189Z,-82
2022-12-02T10:52:05.029Z,-82
2022-12-02T10:54:35.547Z,-82
2022-12-02T10:57:09.267Z,-83
2022-12-02T10:59:37.147Z,-82
2022-12-02T11:02:05.137Z,-84
2022-12-02T11:04:33.103Z,-81
2022-12-02T11:07:01.177Z,-82
2022-12-02T11:09:44.314Z,-82
2022-12-02T11:12:12.160Z,-82
2022-12-02T11:14:40.171Z,-81
2022-12-02T11:17:08.115Z,-82
2022-12-02T11:19:35.976Z,-82
2022-12-02T11:22:04.791Z,-82
2022-12-02T11:24:32.582Z,-82
2022-12-02T11:27:00.438Z,-80
2022-12-02T11:32:10.876Z,-81
2022-12-02T11:35:08.610Z,-81
2022-12-02T11:37:27.164Z,-82
2022-12-02T11:39:55.105Z,-80
2022-12-02T11:42:22.947Z,-80
2022-12-02T11:44:50.954Z,-81
2022-12-02T11:47:18.871Z,-81
2022-12-02T11:49:46.794Z,-81
2022-12-02T11:52:16.665Z,-81
2022-12-02T11:54:44.441Z,-81
2022-12-02T11:57:12.378Z,-81
2022-12-02T11:59:40.136Z,-81
2022-12-02T12:02:21.930Z,-81
2022-12-02T12:04:50.065Z,-81
2022-12-02T12:07:18.239Z,-81
2022-12-02T12:09:45.989Z,-81
2022-12-02T12:12:13.817Z,-81
2022-12-02T12:14:41.779Z,-81
2022-12-02T12:17:09.835Z,-81
2022-12-02T12:19:37.710Z,-81
2022-12-02T12:22:05.479Z,-81
2022-12-02T12:24:33.318Z,-81
2022-12-02T12:27:01.145Z,-81
2022-12-02T12:29:28.955Z,-81
2022-12-02T12:31:56.703Z,-79
2022-12-02T12:34:24.491Z,-79
2022-12-02T12:36:52.335Z,-79
2022-12-02T12:39:20.211Z,-79
2022-12-02T12:42:03.412Z,-79
2022-12-02T12:44:34.113Z,-79
2022-12-02T12:47:02.789Z,-79
2022-12-02T12:49:30.727Z,-79
2022-12-02T12:51:58.557Z,-79
2022-12-02T12:54:26.300Z,-79
2022-12-02T12:56:54.100Z,-79
2022-12-02T12:59:22.016Z,-79
2022-12-02T13:01:49.854Z,-80
2022-12-02T13:04:17.754Z,-80
2022-12-02T13:06:47.080Z,-81
2022-12-02T13:09:15.216Z,-81
2022-12-02T13:11:43.328Z,-81
2022-12-02T13:14:13.495Z,-81
2022-12-02T13:16:41.471Z,-81
2022-12-02T13:19:09.672Z,-81
2022-12-02T13:21:37.788Z,-81
2022-12-02T13:26:47.443Z,-82
2022-12-02T13:29:15.428Z,-81
2022-12-02T13:31:43.275Z,-82
2022-12-02T13:34:11.245Z,-83
2022-12-02T13:36:39.467Z,-82
2022-12-02T13:39:13.927Z,-81
2022-12-02T13:41:42.182Z,-81
2022-12-02T13:44:10.043Z,-81
2022-12-02T13:46:37.974Z,-81
2022-12-02T13:49:05.898Z,-81
2022-12-02T13:51:33.733Z,-81
2022-12-02T13:54:01.647Z,-81
2022-12-02T13:56:29.557Z,-81
2022-12-02T13:58:57.364Z,-81
2022-12-02T14:01:25.340Z,-81
2022-12-02T14:03:53.373Z,-81
2022-12-02T14:06:21.381Z,-81
2022-12-02T14:08:49.291Z,-81
2022-12-02T14:11:21.215Z,-81
2022-12-02T14:13:53.790Z,-81
2022-12-02T14:16:21.760Z,-81
2022-12-02T14:18:55.460Z,-82
2022-12-02T14:21:25.009Z,-82
2022-12-02T14:23:52.882Z,-82
2022-12-02T14:26:20.713Z,-79
2022-12-02T14:28:48.609Z,-78
2022-12-02T14:31:25.455Z,-80
2022-12-02T14:34:11.760Z,-80
2022-12-02T14:36:40.054Z,-80
2022-12-02T14:39:08.111Z,-80
2022-12-02T14:41:35.880Z,-80
2022-12-02T14:44:03.627Z,-80
2022-12-02T14:46:31.586Z,-81
2022-12-02T14:49:30.710Z,-81
2022-12-02T14:51:47.445Z,-81
2022-12-02T14:54:15.564Z,-81
2022-12-02T14:56:43.617Z,-82
2022-12-02T14:59:14.879Z,-80
2022-12-02T15:01:45.141Z,-80
2022-12-02T15:04:13.115Z,-80
2022-12-02T15:06:40.906Z,-80
2022-12-02T15:09:08.671Z,-80
2022-12-02T15:11:36.502Z,-80
2022-12-02T15:14:04.335Z,-80
2022-12-02T15:16:32.200Z,-81
2022-12-02T15:19:00.091Z,-80
2022-12-02T15:21:27.959Z,-81
2022-12-02T15:23:55.746Z,-81
2022-12-02T15:26:23.558Z,-80
2022-12-02T15:28:51.310Z,-80
2022-12-02T15:31:21.147Z,-80
2022-12-02T15:33:48.981Z,-81
2022-12-02T15:36:16.792Z,-80
2022-12-02T15:38:44.566Z,-80
2022-12-02T15:41:12.521Z,-80
2022-12-02T15:43:40.345Z,-80
2022-12-02T15:46:08.221Z,-80
2022-12-02T15:48:38.005Z,-80
2022-12-02T15:51:05.779Z,-80
2022-12-02T15:53:33.538Z,-80
2022-12-02T15:56:01.368Z,-80
2022-12-02T15:58:29.072Z,-80
2022-12-02T16:00:56.932Z,-80
2022-12-02T16:03:24.763Z,-81
2022-12-02T16:05:52.723Z,-80
2022-12-02T16:08:20.787Z,-80
2022-12-02T16:10:49.609Z,-81
2022-12-02T16:13:17.703Z,-80
2022-12-02T16:15:45.594Z,-80
2022-12-02T16:18:13.426Z,-79
2022-12-02T16:20:41.529Z,-82
2022-12-02T16:23:09.479Z,-83
2022-12-02T16:25:41.540Z,-82
2022-12-02T16:28:09.406Z,-81
2022-12-02T16:30:37.472Z,-83
2022-12-02T16:33:05.535Z,-82
2022-12-02T16:35:33.371Z,-70
2022-12-02T16:38:04.444Z,-70
2022-12-02T16:40:32.818Z,-70
2022-12-02T16:43:02.229Z,-69
2022-12-02T16:45:30.547Z,-70
2022-12-02T16:47:58.339Z,-70
2022-12-02T16:50:26.123Z,-69
2022-12-02T16:52:53.870Z,-70
2022-12-02T16:55:21.656Z,-70
2022-12-02T16:57:49.713Z,-70
2022-12-02T17:00:17.516Z,-70
2022-12-02T17:02:45.330Z,-70
2022-12-02T17:05:13.305Z,-70
2022-12-02T17:07:41.191Z,-70
2022-12-02T17:10:09.288Z,-69
2022-12-02T17:12:37.177Z,-70
2022-12-02T17:15:05.037Z,-69
2022-12-02T17:17:48.305Z,-70
2022-12-02T17:20:16.177Z,-70
2022-12-02T17:22:44.811Z,-69
2022-12-02T17:25:12.998Z,-70
2022-12-02T17:27:41.063Z,-70
2022-12-02T17:30:08.858Z,-70
2022-12-02T17:32:36.693Z,-69
2022-12-02T17:35:04.520Z,-70
2022-12-02T17:37:32.319Z,-69
2022-12-02T17:40:00.108Z,-70
2022-12-02T17:42:28.136Z,-69
2022-12-02T17:44:55.935Z,-69
2022-12-02T17:47:23.723Z,-70
2022-12-02T17:49:51.521Z,-70
2022-12-02T17:52:20.847Z,-70
2022-12-02T17:54:49.364Z,-69
2022-12-02T17:57:17.312Z,-70
2022-12-02T17:59:45.178Z,-70
2022-12-02T18:02:13.326Z,-70
2022-12-02T18:04:44.180Z,-70
2022-12-02T18:07:12.354Z,-70
2022-12-02T18:09:40.156Z,-70
2022-12-02T18:12:07.887Z,-70
2022-12-02T18:14:35.634Z,-70
2022-12-02T18:17:03.657Z,-70
2022-12-02T18:19:31.439Z,-71
2022-12-02T18:21:59.239Z,-70
2022-12-02T18:24:26.972Z,-71
2022-12-02T18:26:54.783Z,-68
2022-12-02T18:29:22.545Z,-69
2022-12-02T18:31:50.316Z,-68
2022-12-02T18:34:18.118Z,-68
2022-12-02T18:36:45.941Z,-68
2022-12-02T18:39:13.845Z,-67
2022-12-02T18:41:41.696Z,-68
2022-12-02T18:44:09.449Z,-69
2022-12-02T18:46:37.291Z,-68
2022-12-02T18:49:05.092Z,-69
2022-12-02T18:51:32.947Z,-68
2022-12-02T18:54:00.683Z,-68
2022-12-02T18:56:28.602Z,-68
2022-12-02T18:58:56.604Z,-67
2022-12-02T19:01:26.979Z,-68
2022-12-02T19:03:58.515Z,-67
2022-12-02T19:06:26.312Z,-68
2022-12-02T19:08:54.117Z,-68
2022-12-02T19:11:21.933Z,-68
2022-12-02T19:13:49.718Z,-70
2022-12-02T19:16:17.891Z,-70
2022-12-02T19:18:45.780Z,-70
2022-12-02T19:21:13.599Z,-70
2022-12-02T19:23:43.985Z,-70
2022-12-02T19:26:11.979Z,-70
2022-12-02T19:28:39.828Z,-70
2022-12-02T19:31:07.659Z,-69
2022-12-02T19:33:37.417Z,-71
2022-12-02T19:36:05.211Z,-70
2022-12-02T19:38:33.096Z,-71
2022-12-02T19:41:00.955Z,-70
2022-12-02T19:43:33.901Z,-68
2022-12-02T19:46:03.383Z,-68
2022-12-02T19:48:31.199Z,-68
2022-12-02T19:50:59.014Z,-68
2022-12-02T19:53:26.767Z,-69
2022-12-02T19:55:54.515Z,-67
2022-12-02T19:58:22.330Z,-68
2022-12-02T20:00:53.620Z,-68
2022-12-02T20:03:21.503Z,-70
2022-12-02T20:05:49.611Z,-70
2022-12-02T20:08:17.503Z,-69
2022-12-02T20:10:45.460Z,-70
2022-12-02T20:13:13.437Z,-70
2022-12-02T20:15:41.279Z,-69
2022-12-02T20:18:09.105Z,-69
2022-12-02T20:20:36.940Z,-70
2022-12-02T20:23:04.793Z,-71
2022-12-02T20:25:32.659Z,-71
2022-12-02T20:28:00.493Z,-70
2022-12-02T20:30:28.426Z,-70
2022-12-02T20:32:56.200Z,-70
2022-12-02T20:35:24.036Z,-70
2022-12-02T20:37:51.769Z,-69
2022-12-02T20:40:19.547Z,-71
2022-12-02T20:42:47.329Z,-70
2022-12-02T20:45:15.135Z,-70
2022-12-02T20:47:43.100Z,-70
2022-12-02T20:50:10.898Z,-69
2022-12-02T20:52:38.839Z,-70
2022-12-02T20:55:06.717Z,-69
2022-12-02T20:57:34.511Z,-69
2022-12-02T21:00:02.360Z,-69
2022-12-02T21:02:30.242Z,-69
2022-12-02T21:04:58.169Z,-70
2022-12-02T21:07:25.953Z,-70
2022-12-02T21:09:53.809Z,-70
2022-12-02T21:12:21.814Z,-69
2022-12-02T21:14:49.810Z,-70
2022-12-02T21:17:17.717Z,-69
2022-12-02T21:19:45.800Z,-70
2022-12-02T21:22:13.566Z,-70
2022-12-02T21:24:41.400Z,-69
2022-12-02T21:27:09.279Z,-70
2022-12-02T21:29:37.148Z,-69
2022-12-02T21:32:05.030Z,-70
2022-12-02T21:34:32.917Z,-70
2022-12-02T21:37:00.746Z,-70
2022-12-02T21:39:28.489Z,-69
2022-12-02T21:41:56.307Z,-70
2022-12-02T21:44:24.059Z,-69
2022-12-02T21:46:51.880Z,-69
2022-12-02T21:49:19.667Z,-69
2022-12-02T21:51:49.652Z,-70
2022-12-02T21:54:17.532Z,-70
2022-12-02T21:56:45.309Z,-69
2022-12-02T21:59:13.093Z,-70
2022-12-02T22:01:42.243Z,-70
2022-12-02T22:04:10.154Z,-70
2022-12-02T22:06:38.070Z,-70
2022-12-02T22:09:05.889Z,-70
2022-12-02T22:11:33.647Z,-70
2022-12-02T22:14:01.581Z,-69
2022-12-02T22:16:29.957Z,-69
2022-12-02T22:18:57.939Z,-69
2022-12-02T22:21:25.702Z,-70
2022-12-02T22:23:53.452Z,-69
2022-12-02T22:26:21.321Z,-70
2022-12-02T22:28:49.168Z,-70
2022-12-02T22:31:17.139Z,-70
2022-12-02T22:33:44.911Z,-69
2022-12-02T22:36:23.138Z,-78
2022-12-02T22:38:51.080Z,-79
2022-12-02T22:41:18.826Z,-79
2022-12-02T22:43:46.795Z,-79
2022-12-02T22:46:14.673Z,-79
2022-12-02T22:48:42.564Z,-79
2022-12-02T22:51:10.321Z,-78
2022-12-02T22:53:38.134Z,-78
2022-12-02T22:56:05.938Z,-78
2022-12-02T22:58:35.207Z,-79
2022-12-02T23:01:03.008Z,-78
2022-12-02T23:03:32.296Z,-79
2022-12-02T23:06:00.043Z,-79
2022-12-02T23:08:27.793Z,-79
2022-12-02T23:10:55.588Z,-78
2022-12-02T23:13:23.446Z,-78
2022-12-02T23:15:51.345Z,-78
2022-12-02T23:18:19.099Z,-78
2022-12-02T23:20:46.877Z,-78
2022-12-02T23:23:15.851Z,-78
2022-12-02T23:25:43.591Z,-78
2022-12-02T23:28:11.480Z,-78
2022-12-02T23:30:39.394Z,-78
2022-12-02T23:33:10.338Z,-78
2022-12-02T23:35:38.097Z,-79
2022-12-02T23:38:06.313Z,-78
2022-12-02T23:40:34.093Z,-78
2022-12-02T23:43:01.928Z,-78
2022-12-02T23:45:29.762Z,-78
2022-12-02T23:47:57.564Z,-78
2022-12-02T23:50:25.492Z,-78
2022-12-02T23:52:53.351Z,-78
2022-12-02T23:55:22.369Z,-78
2022-12-02T23:57:50.188Z,-78
